Minerva Concert — SVWC — position and weather

sailwx.info

Track history (hours):
 
Tides and Currents Weather Stations Pressure Air Temp Water Temp Dewpoint Dewpoint Depression Visibility Wind Speed Wind Dir Waves Ship Positions

Minerva Concert

Last reported at 2014-Sep-21 15:33 UTC. Time now 2014-Sep-21 16:08 UTC.
Position N 56°04' W 002°55'.

Length 241 m; draft 8.2 m.

Type: Tanker. MMSI: 240110000.

Date/timePositionNaut miles runAvg speedWind from/ knotsBaromVisibWave heightAir tempDewpointWater temp
2014-Sep-21 15:33N 56°04' W 002°55'0 0.1
2014-Sep-21 14:24N 56°04' W 002°55'0 0.1
2014-Sep-21 13:30N 56°04' W 002°56'0 0.1
2014-Sep-21 12:27N 56°03' W 002°56'0 0.1
2014-Sep-21 11:27N 56°03' W 002°56'0 0.0
2014-Sep-21 10:30N 56°03' W 002°56'0 0.0
2014-Sep-21 09:30N 56°03' W 002°56'0 0.0
2014-Sep-21 08:30N 56°03' W 002°55'0 0.1
2014-Sep-21 07:33N 56°03' W 002°55'0 0.1
2014-Sep-21 06:33N 56°04' W 002°55'0 0.0
2014-Sep-21 05:30N 56°03' W 002°55'0 0.0
2014-Sep-21 04:33N 56°04' W 002°55'0 0.0
2014-Sep-21 03:33N 56°04' W 002°55'0 0.0
2014-Sep-21 02:33N 56°04' W 002°55'0 0.1
2014-Sep-21 01:33N 56°03' W 002°55'0 0.1
2014-Sep-21 00:24N 56°03' W 002°55'0 0.0
2014-Sep-20 23:27N 56°03' W 002°55'0 0.0
2014-Sep-20 22:27N 56°03' W 002°55'0 0.1
2014-Sep-20 21:27N 56°03' W 002°56'0 0.0
2014-Sep-20 20:27N 56°03' W 002°56'0 0.0
2014-Sep-20 19:30N 56°03' W 002°56'0 0.1
2014-Sep-20 18:33N 56°03' W 002°55'0 0.1
2014-Sep-20 17:33N 56°04' W 002°55'0 0.1
2014-Sep-20 16:33N 56°04' W 002°55'0 0.0
2014-Sep-20 15:33N 56°04' W 002°55'0 0.0
2014-Sep-20 14:33N 56°04' W 002°55'0 0.1
2014-Sep-20 13:21N 56°04' W 002°56'0 0.2
2014-Sep-20 12:33N 56°04' W 002°56'0 0.1
2014-Sep-20 11:33N 56°03' W 002°56'0 0.1
2014-Sep-20 10:33N 56°03' W 002°56'5 4.5
2014-Sep-20 09:33N 56°07' W 002°50'9 9.4
2014-Sep-20 08:33N 56°07' W 002°33'1010.5
2014-Sep-20 07:33N 56°07' W 002°14'1010.4
2014-Sep-20 06:34N 56°02' W 001°57'1110.4
2014-Sep-20 05:29N 55°57' W 001°39'3110.3
2014-Sep-20 02:30N 55°44' W 000°50'22 9.7
2014-Sep-20 00:17N 55°35' W 000°16'112 8.1
2014-Sep-19 10:28N 54°46' E 002°41'1010.9
2014-Sep-19 09:33N 54°42' E 002°56'1110.7
2014-Sep-19 08:33N 54°37' E 003°13'1110.6
2014-Sep-19 07:33N 54°32' E 003°29'1312.9
2014-Sep-19 06:33N 54°20' E 003°36'1110.8
2014-Sep-19 05:32N 54°10' E 003°42'10 9.9
2014-Sep-19 04:33N 54°00' E 003°48'9 7.7
2014-Sep-19 03:26N 53°55' E 003°36'8 9.6
2014-Sep-19 02:33N 53°51' E 003°24'1010.1
2014-Sep-19 01:33N 53°43' E 003°13'1110.2
2014-Sep-19 00:30N 53°34' E 003°03'1010.4
2014-Sep-18 23:32N 53°25' E 002°56'1010.3
2014-Sep-18 22:32N 53°16' E 002°48'1010.3
2014-Sep-18 21:34N 53°06' E 002°44'30 8.8
2014-Sep-18 18:07N 52°38' E 002°23'1 1.5
2014-Sep-18 17:33N 52°39' E 002°24'1 1.5
2014-Sep-18 16:33N 52°40' E 002°26'1 1.1
2014-Sep-18 15:25N 52°41' E 002°27'1 0.9
2014-Sep-18 14:33N 52°41' E 002°29'1 0.9
2014-Sep-18 13:21N 52°41' E 002°30'1 1.2
2014-Sep-18 12:29N 52°40' E 002°32'5 5.0
2014-Sep-18 11:30N 52°40' E 002°40'1010.8
2014-Sep-18 10:34N 52°29' E 002°40'10 9.7
2014-Sep-18 09:34N 52°20' E 002°44'1010.2
2014-Sep-18 08:33N 52°18' E 003°00'1010.0
2014-Sep-18 07:33N 52°16' E 003°16'1010.1
2014-Sep-18 06:34N 52°10' E 003°29'1010.3
2014-Sep-18 05:33N 52°05' E 003°44'9 9.2
2014-Sep-18 04:34N 52°01' E 003°58'9 8.9
2014-Sep-18 03:33N 51°57' E 004°10'0 0.1
2014-Sep-18 02:32N 51°56' E 004°10'0 0.0
2014-Sep-18 01:32N 51°56' E 004°10'0 0.0
2014-Sep-18 00:32N 51°56' E 004°10'0 0.0
2014-Sep-17 23:32N 51°56' E 004°10'0 0.0
2014-Sep-17 22:32N 51°56' E 004°10'0 0.0
2014-Sep-17 21:32N 51°56' E 004°10'0 0.0
2014-Sep-17 20:32N 51°56' E 004°10'0 0.0
2014-Sep-17 19:32N 51°56' E 004°10'0 0.0
2014-Sep-17 18:32N 51°56' E 004°10'0 0.0
2014-Sep-17 17:29N 51°56' E 004°10'0 0.0
2014-Sep-17 16:32N 51°56' E 004°10'0 0.0
2014-Sep-17 15:32N 51°56' E 004°10'0 0.0
2014-Sep-17 14:32N 51°56' E 004°10'0 0.0
2014-Sep-17 13:29N 51°56' E 004°10'0 0.0
2014-Sep-17 12:32N 51°56' E 004°10'0 0.0
2014-Sep-17 11:32N 51°56' E 004°10'0 0.0
2014-Sep-17 10:32N 51°56' E 004°10'0 0.0
2014-Sep-17 09:32N 51°56' E 004°10'0 0.0
2014-Sep-17 08:29N 51°56' E 004°10'0 0.0
2014-Sep-17 07:32N 51°56' E 004°10'0 0.0
2014-Sep-17 06:29N 51°56' E 004°10'0 0.0
2014-Sep-17 05:32N 51°56' E 004°10'0 0.0
2014-Sep-17 04:32N 51°56' E 004°10'0 0.0
2014-Sep-17 03:32N 51°56' E 004°10'0 0.0
2014-Sep-17 02:32N 51°56' E 004°10'0 0.0
2014-Sep-17 01:32N 51°56' E 004°10'0 0.0
2014-Sep-17 00:32N 51°56' E 004°10'0 0.0
2014-Sep-16 23:29N 51°56' E 004°10'0 0.0
2014-Sep-16 22:32N 51°56' E 004°10'0 0.3
2014-Sep-16 21:33N 51°57' E 004°10'2 2.4
2014-Sep-16 20:33N 51°55' E 004°13'0 0.0
2014-Sep-16 19:33N 51°55' E 004°13'0 0.0
2014-Sep-16 18:33N 51°55' E 004°13'0 0.0
2014-Sep-16 17:30N 51°55' E 004°13'0 0.0
2014-Sep-16 16:33N 51°55' E 004°13'0 0.0
2014-Sep-16 15:24N 51°55' E 004°13'0 0.0
2014-Sep-16 14:33N 51°55' E 004°13'0 0.0
2014-Sep-16 13:30N 51°55' E 004°13'0 0.0
2014-Sep-16 12:33N 51°55' E 004°13'0 0.0
2014-Sep-16 11:33N 51°55' E 004°13'0 0.0
2014-Sep-16 10:33N 51°55' E 004°13'0 0.0
2014-Sep-16 09:33N 51°55' E 004°13'0 0.0
2014-Sep-16 08:33N 51°55' E 004°13'0 0.0
2014-Sep-16 07:30N 51°55' E 004°13'0 0.0
2014-Sep-16 06:33N 51°55' E 004°13'0 0.0
2014-Sep-16 05:27N 51°55' E 004°13'0 0.0
2014-Sep-16 04:33N 51°55' E 004°13'0 0.0
2014-Sep-16 03:33N 51°55' E 004°13'0 0.0
2014-Sep-16 02:33N 51°55' E 004°13'0 0.0
2014-Sep-16 01:33N 51°55' E 004°13'0 0.0
2014-Sep-16 00:27N 51°55' E 004°13'0 0.0
2014-Sep-15 23:33N 51°55' E 004°13'0 0.0
2014-Sep-15 22:30N 51°55' E 004°13'0 0.0
2014-Sep-15 21:30N 51°55' E 004°13'0 0.0
2014-Sep-15 20:33N 51°55' E 004°13'0 0.0
2014-Sep-15 19:33N 51°55' E 004°13'0 0.0
2014-Sep-15 18:30N 51°55' E 004°13'0 0.0
2014-Sep-15 17:27N 51°55' E 004°13'0 0.0
2014-Sep-15 16:33N 51°55' E 004°13'0 0.0
2014-Sep-15 15:33N 51°55' E 004°13'0 0.0
2014-Sep-15 14:33N 51°55' E 004°13'4 3.7
2014-Sep-15 13:33N 51°58' E 004°08'9 8.5
2014-Sep-15 12:33N 52°01' E 003°55'9 9.0
2014-Sep-15 11:33N 51°58' E 003°41'1111.2
2014-Sep-15 10:33N 51°56' E 003°23'8 8.4
2014-Sep-15 09:33N 51°54' E 003°10'1211.5
2014-Sep-15 08:33N 51°53' E 002°51'26 8.4
2014-Sep-15 05:30N 52°18' E 002°46'42811.2
2014-Sep-13 15:19N 57°49' E 010°41'810.4
2014-Sep-13 14:33N 57°44' E 010°53'1110.8
2014-Sep-13 13:33N 57°37' E 011°08'1211.9
2014-Sep-13 12:33N 57°29' E 011°24'1211.8
2014-Sep-13 11:33N 57°18' E 011°32'1211.9
2014-Sep-13 10:33N 57°06' E 011°40'1211.9
2014-Sep-13 09:31N 56°55' E 011°48'1111.4
2014-Sep-13 08:33N 56°44' E 011°51'1311.9
2014-Sep-13 07:25N 56°32' E 011°40'1411.6
2014-Sep-13 06:11N 56°20' E 011°26'811.5
2014-Sep-13 05:27N 56°13' E 011°19'1111.6
2014-Sep-13 04:32N 56°04' E 011°07'1111.8
2014-Sep-13 03:34N 55°55' E 010°56'1010.3
2014-Sep-13 02:33N 55°45' E 010°48'1211.5
2014-Sep-13 01:33N 55°34' E 010°50'19 9.4
2014-Sep-12 23:33N 55°18' E 011°07'7 6.2
2014-Sep-12 22:28N 55°12' E 011°14'5 0.2
2014-Sep-11 20:17N 55°12' E 011°06'1010.7
2014-Sep-11 19:22N 55°03' E 011°00'2111.1
2014-Sep-11 17:28N 54°43' E 010°47'9 9.9
2014-Sep-11 16:33N 54°37' E 010°58'1110.8
2014-Sep-11 15:33N 54°35' E 011°16'  
Track history (hours):
 
Tides and Currents Weather Stations Pressure Air Temp Water Temp Dewpoint Dewpoint Depression Visibility Wind Speed Wind Dir Waves Ship Positions

Minerva Concert

Last reported at 2014-Sep-21 15:33 UTC. Time now 2014-Sep-21 16:08 UTC.
Position N 56°04' W 002°55'.

Length 241 m; draft 8.2 m.

Type: Tanker. MMSI: 240110000.

Date/timePositionNaut miles runAvg speedWind from/ knotsBaromVisibWave heightAir tempDewpointWater temp
2014-Sep-21 15:33N 56°04' W 002°55'0 0.1
2014-Sep-21 14:24N 56°04' W 002°55'0 0.1
2014-Sep-21 13:30N 56°04' W 002°56'0 0.1
2014-Sep-21 12:27N 56°03' W 002°56'0 0.1
2014-Sep-21 11:27N 56°03' W 002°56'0 0.0
2014-Sep-21 10:30N 56°03' W 002°56'0 0.0
2014-Sep-21 09:30N 56°03' W 002°56'0 0.0
2014-Sep-21 08:30N 56°03' W 002°55'0 0.1
2014-Sep-21 07:33N 56°03' W 002°55'0 0.1
2014-Sep-21 06:33N 56°04' W 002°55'0 0.0
2014-Sep-21 05:30N 56°03' W 002°55'0 0.0
2014-Sep-21 04:33N 56°04' W 002°55'0 0.0
2014-Sep-21 03:33N 56°04' W 002°55'0 0.0
2014-Sep-21 02:33N 56°04' W 002°55'0 0.1
2014-Sep-21 01:33N 56°03' W 002°55'0 0.1
2014-Sep-21 00:24N 56°03' W 002°55'0 0.0
2014-Sep-20 23:27N 56°03' W 002°55'0 0.0
2014-Sep-20 22:27N 56°03' W 002°55'0 0.1
2014-Sep-20 21:27N 56°03' W 002°56'0 0.0
2014-Sep-20 20:27N 56°03' W 002°56'0 0.0
2014-Sep-20 19:30N 56°03' W 002°56'0 0.1
2014-Sep-20 18:33N 56°03' W 002°55'0 0.1
2014-Sep-20 17:33N 56°04' W 002°55'0 0.1
2014-Sep-20 16:33N 56°04' W 002°55'0 0.0
2014-Sep-20 15:33N 56°04' W 002°55'0 0.0
2014-Sep-20 14:33N 56°04' W 002°55'0 0.1
2014-Sep-20 13:21N 56°04' W 002°56'0 0.2
2014-Sep-20 12:33N 56°04' W 002°56'0 0.1
2014-Sep-20 11:33N 56°03' W 002°56'0 0.1
2014-Sep-20 10:33N 56°03' W 002°56'5 4.5
2014-Sep-20 09:33N 56°07' W 002°50'9 9.4
2014-Sep-20 08:33N 56°07' W 002°33'1010.5
2014-Sep-20 07:33N 56°07' W 002°14'1010.4
2014-Sep-20 06:34N 56°02' W 001°57'1110.4
2014-Sep-20 05:29N 55°57' W 001°39'3110.3
2014-Sep-20 02:30N 55°44' W 000°50'22 9.7
2014-Sep-20 00:17N 55°35' W 000°16'112 8.1
2014-Sep-19 10:28N 54°46' E 002°41'1010.9
2014-Sep-19 09:33N 54°42' E 002°56'1110.7
2014-Sep-19 08:33N 54°37' E 003°13'1110.6
2014-Sep-19 07:33N 54°32' E 003°29'1312.9
2014-Sep-19 06:33N 54°20' E 003°36'1110.8
2014-Sep-19 05:32N 54°10' E 003°42'10 9.9
2014-Sep-19 04:33N 54°00' E 003°48'9 7.7
2014-Sep-19 03:26N 53°55' E 003°36'8 9.6
2014-Sep-19 02:33N 53°51' E 003°24'1010.1
2014-Sep-19 01:33N 53°43' E 003°13'1110.2
2014-Sep-19 00:30N 53°34' E 003°03'1010.4
2014-Sep-18 23:32N 53°25' E 002°56'1010.3
2014-Sep-18 22:32N 53°16' E 002°48'1010.3
2014-Sep-18 21:34N 53°06' E 002°44'30 8.8
2014-Sep-18 18:07N 52°38' E 002°23'1 1.5
2014-Sep-18 17:33N 52°39' E 002°24'1 1.5
2014-Sep-18 16:33N 52°40' E 002°26'1 1.1
2014-Sep-18 15:25N 52°41' E 002°27'1 0.9
2014-Sep-18 14:33N 52°41' E 002°29'1 0.9
2014-Sep-18 13:21N 52°41' E 002°30'1 1.2
2014-Sep-18 12:29N 52°40' E 002°32'5 5.0
2014-Sep-18 11:30N 52°40' E 002°40'1010.8
2014-Sep-18 10:34N 52°29' E 002°40'10 9.7
2014-Sep-18 09:34N 52°20' E 002°44'1010.2
2014-Sep-18 08:33N 52°18' E 003°00'1010.0
2014-Sep-18 07:33N 52°16' E 003°16'1010.1
2014-Sep-18 06:34N 52°10' E 003°29'1010.3
2014-Sep-18 05:33N 52°05' E 003°44'9 9.2
2014-Sep-18 04:34N 52°01' E 003°58'9 8.9
2014-Sep-18 03:33N 51°57' E 004°10'0 0.1
2014-Sep-18 02:32N 51°56' E 004°10'0 0.0
2014-Sep-18 01:32N 51°56' E 004°10'0 0.0
2014-Sep-18 00:32N 51°56' E 004°10'0 0.0
2014-Sep-17 23:32N 51°56' E 004°10'0 0.0
2014-Sep-17 22:32N 51°56' E 004°10'0 0.0
2014-Sep-17 21:32N 51°56' E 004°10'0 0.0
2014-Sep-17 20:32N 51°56' E 004°10'0 0.0
2014-Sep-17 19:32N 51°56' E 004°10'0 0.0
2014-Sep-17 18:32N 51°56' E 004°10'0 0.0
2014-Sep-17 17:29N 51°56' E 004°10'0 0.0
2014-Sep-17 16:32N 51°56' E 004°10'0 0.0
2014-Sep-17 15:32N 51°56' E 004°10'0 0.0
2014-Sep-17 14:32N 51°56' E 004°10'0 0.0
2014-Sep-17 13:29N 51°56' E 004°10'0 0.0
2014-Sep-17 12:32N 51°56' E 004°10'0 0.0
2014-Sep-17 11:32N 51°56' E 004°10'0 0.0
2014-Sep-17 10:32N 51°56' E 004°10'0 0.0
2014-Sep-17 09:32N 51°56' E 004°10'0 0.0
2014-Sep-17 08:29N 51°56' E 004°10'0 0.0
2014-Sep-17 07:32N 51°56' E 004°10'0 0.0
2014-Sep-17 06:29N 51°56' E 004°10'0 0.0
2014-Sep-17 05:32N 51°56' E 004°10'0 0.0
2014-Sep-17 04:32N 51°56' E 004°10'0 0.0
2014-Sep-17 03:32N 51°56' E 004°10'0 0.0
2014-Sep-17 02:32N 51°56' E 004°10'0 0.0
2014-Sep-17 01:32N 51°56' E 004°10'0 0.0
2014-Sep-17 00:32N 51°56' E 004°10'0 0.0
2014-Sep-16 23:29N 51°56' E 004°10'0 0.0
2014-Sep-16 22:32N 51°56' E 004°10'0 0.3
2014-Sep-16 21:33N 51°57' E 004°10'2 2.4
2014-Sep-16 20:33N 51°55' E 004°13'0 0.0
2014-Sep-16 19:33N 51°55' E 004°13'0 0.0
2014-Sep-16 18:33N 51°55' E 004°13'0 0.0
2014-Sep-16 17:30N 51°55' E 004°13'0 0.0
2014-Sep-16 16:33N 51°55' E 004°13'0 0.0
2014-Sep-16 15:24N 51°55' E 004°13'0 0.0
2014-Sep-16 14:33N 51°55' E 004°13'0 0.0
2014-Sep-16 13:30N 51°55' E 004°13'0 0.0
2014-Sep-16 12:33N 51°55' E 004°13'0 0.0
2014-Sep-16 11:33N 51°55' E 004°13'0 0.0
2014-Sep-16 10:33N 51°55' E 004°13'0 0.0
2014-Sep-16 09:33N 51°55' E 004°13'0 0.0
2014-Sep-16 08:33N 51°55' E 004°13'0 0.0
2014-Sep-16 07:30N 51°55' E 004°13'0 0.0
2014-Sep-16 06:33N 51°55' E 004°13'0 0.0
2014-Sep-16 05:27N 51°55' E 004°13'0 0.0
2014-Sep-16 04:33N 51°55' E 004°13'0 0.0
2014-Sep-16 03:33N 51°55' E 004°13'0 0.0
2014-Sep-16 02:33N 51°55' E 004°13'0 0.0
2014-Sep-16 01:33N 51°55' E 004°13'0 0.0
2014-Sep-16 00:27N 51°55' E 004°13'0 0.0
2014-Sep-15 23:33N 51°55' E 004°13'0 0.0
2014-Sep-15 22:30N 51°55' E 004°13'0 0.0
2014-Sep-15 21:30N 51°55' E 004°13'0 0.0
2014-Sep-15 20:33N 51°55' E 004°13'0 0.0
2014-Sep-15 19:33N 51°55' E 004°13'0 0.0
2014-Sep-15 18:30N 51°55' E 004°13'0 0.0
2014-Sep-15 17:27N 51°55' E 004°13'0 0.0
2014-Sep-15 16:33N 51°55' E 004°13'0 0.0
2014-Sep-15 15:33N 51°55' E 004°13'0 0.0
2014-Sep-15 14:33N 51°55' E 004°13'4 3.7
2014-Sep-15 13:33N 51°58' E 004°08'9 8.5
2014-Sep-15 12:33N 52°01' E 003°55'9 9.0
2014-Sep-15 11:33N 51°58' E 003°41'1111.2
2014-Sep-15 10:33N 51°56' E 003°23'8 8.4
2014-Sep-15 09:33N 51°54' E 003°10'1211.5
2014-Sep-15 08:33N 51°53' E 002°51'26 8.4
2014-Sep-15 05:30N 52°18' E 002°46'42811.2
2014-Sep-13 15:19N 57°49' E 010°41'810.4
2014-Sep-13 14:33N 57°44' E 010°53'1110.8
2014-Sep-13 13:33N 57°37' E 011°08'1211.9
2014-Sep-13 12:33N 57°29' E 011°24'1211.8
2014-Sep-13 11:33N 57°18' E 011°32'1211.9
2014-Sep-13 10:33N 57°06' E 011°40'1211.9
2014-Sep-13 09:31N 56°55' E 011°48'1111.4
2014-Sep-13 08:33N 56°44' E 011°51'1311.9
2014-Sep-13 07:25N 56°32' E 011°40'1411.6
2014-Sep-13 06:11N 56°20' E 011°26'811.5
2014-Sep-13 05:27N 56°13' E 011°19'1111.6
2014-Sep-13 04:32N 56°04' E 011°07'1111.8
2014-Sep-13 03:34N 55°55' E 010°56'1010.3
2014-Sep-13 02:33N 55°45' E 010°48'1211.5
2014-Sep-13 01:33N 55°34' E 010°50'19 9.4
2014-Sep-12 23:33N 55°18' E 011°07'7 6.2
2014-Sep-12 22:28N 55°12' E 011°14'5 0.2
2014-Sep-11 20:17N 55°12' E 011°06'1010.7
2014-Sep-11 19:22N 55°03' E 011°00'2111.1
2014-Sep-11 17:28N 54°43' E 010°47'9 9.9
2014-Sep-11 16:33N 54°37' E 010°58'1110.8
2014-Sep-11 15:33N 54°35' E 011°16'  

Dump ship's entire track history